Time;durP1;ratioP1;P1;durP2;ratioP2;P2;SDS_P1;SDS_P2;PMS_P1;PMS_P2;Temp;Humidity;BMP_temperature;BMP_pressure;BME280_temperature;BME280_humidity;BME280_pressure;Samples;Min_cycle;Max_cycle;Signal;HPM_P1;HPM_P2
2021/08/16 00:02:23;;;;;;;7.80;5.60;;;19.30;99.90;;;;;;6094215;23;20557;-94
2021/08/16 00:04:50;;;;;;;6.10;5.60;;;19.30;99.90;;;;;;6093195;23;20654;-93
2021/08/16 00:07:19;;;;;;;6.57;5.13;;;19.30;99.90;;;;;;6092813;23;20657;-93
2021/08/16 00:09:46;;;;;;;7.43;5.87;;;19.30;99.90;;;;;;6092926;23;20626;-93
2021/08/16 00:12:13;;;;;;;7.27;6.67;;;19.40;99.90;;;;;;6093460;23;21089;-94
2021/08/16 00:14:40;;;;;;;8.40;7.43;;;19.40;99.90;;;;;;6093294;23;20520;-94
2021/08/16 00:17:08;;;;;;;6.13;5.53;;;19.40;99.90;;;;;;6092919;23;20673;-93
2021/08/16 00:19:34;;;;;;;6.67;6.07;;;19.40;99.90;;;;;;6092868;23;20709;-94
2021/08/16 00:22:01;;;;;;;6.00;5.50;;;19.40;99.90;;;;;;6093047;23;20732;-94
2021/08/16 00:24:30;;;;;;;7.43;6.23;;;19.50;99.90;;;;;;6093545;23;20515;-94
2021/08/16 00:26:57;;;;;;;6.97;6.13;;;19.50;99.90;;;;;;6092440;23;20613;-93
2021/08/16 00:29:24;;;;;;;6.17;5.53;;;19.50;99.90;;;;;;6092763;23;20633;-93
2021/08/16 00:31:51;;;;;;;7.20;6.50;;;19.50;99.90;;;;;;6093215;23;20590;-94
2021/08/16 00:34:18;;;;;;;7.13;6.50;;;19.60;99.90;;;;;;6090056;23;20597;-94
2021/08/16 00:36:45;;;;;;;7.10;6.40;;;19.60;99.90;;;;;;6091578;23;21092;-94
2021/08/16 00:39:11;;;;;;;6.00;5.40;;;19.60;99.90;;;;;;6092038;23;20583;-93
2021/08/16 00:41:40;;;;;;;5.63;5.13;;;19.60;99.90;;;;;;6092729;23;20594;-94
2021/08/16 00:44:08;;;;;;;6.30;5.33;;;19.60;99.90;;;;;;6067990;23;20594;-93
2021/08/16 00:46:36;;;;;;;8.90;6.50;;;19.60;99.90;;;;;;6093783;23;20589;-94
2021/08/16 00:49:03;;;;;;;8.93;5.57;;;19.60;99.90;;;;;;6094055;23;20613;-94
2021/08/16 00:51:36;;;;;;;8.03;5.67;;;19.70;99.90;;;;;;6092851;23;20610;-95
2021/08/16 00:54:04;;;;;;;6.20;5.20;;;19.60;99.90;;;;;;6093740;23;20636;-93
2021/08/16 00:56:31;;;;;;;9.13;5.90;;;19.60;99.90;;;;;;6095282;23;20601;-94
2021/08/16 00:59:01;;;;;;;9.60;5.70;;;19.70;99.90;;;;;;6094241;23;20585;-94
2021/08/16 01:01:28;;;;;;;7.40;5.30;;;19.70;99.90;;;;;;6094817;23;20594;-93
2021/08/16 01:03:55;;;;;;;6.70;5.50;;;19.70;99.90;;;;;;6094707;23;20586;-93
2021/08/16 01:06:22;;;;;;;6.00;5.43;;;19.70;99.90;;;;;;6094848;23;20601;-94
2021/08/16 01:08:50;;;;;;;6.00;5.40;;;19.70;99.90;;;;;;6068605;23;20999;-94
2021/08/16 01:11:18;;;;;;;4.93;4.53;;;19.70;99.90;;;;;;6094839;23;20617;-94
2021/08/16 01:13:45;;;;;;;7.03;5.47;;;19.80;99.90;;;;;;6091397;23;20574;-93
2021/08/16 01:16:15;;;;;;;7.40;5.30;;;19.80;99.90;;;;;;6091174;23;20600;-93
2021/08/16 01:18:43;;;;;;;9.37;5.70;;;19.80;99.90;;;;;;6094573;23;20569;-93
2021/08/16 01:21:13;;;;;;;5.90;5.30;;;19.80;99.90;;;;;;6094813;23;20614;-93
2021/08/16 01:23:40;;;;;;;6.73;5.70;;;19.80;99.90;;;;;;6094794;23;20519;-94
2021/08/16 01:26:07;;;;;;;7.20;6.50;;;19.80;99.90;;;;;;6094975;23;20590;-93
2021/08/16 01:28:35;;;;;;;5.80;5.20;;;19.80;99.90;;;;;;6094195;23;20590;-94
2021/08/16 01:31:05;;;;;;;7.00;6.30;;;19.80;99.90;;;;;;6094546;23;20630;-94
2021/08/16 01:33:33;;;;;;;5.87;5.37;;;19.80;99.90;;;;;;6095007;23;20522;-94
2021/08/16 01:36:01;;;;;;;5.70;5.20;;;19.80;99.90;;;;;;6095255;23;20581;-94
2021/08/16 01:38:29;;;;;;;6.80;5.10;;;19.80;99.90;;;;;;6093396;23;20566;-94
2021/08/16 01:40:57;;;;;;;8.40;5.83;;;19.80;99.90;;;;;;6093704;23;20618;-94
2021/08/16 01:43:23;;;;;;;17.43;6.97;;;19.70;99.90;;;;;;6094761;23;20596;-93
2021/08/16 01:45:52;;;;;;;7.17;5.73;;;19.70;99.90;;;;;;6096566;23;20613;-93
2021/08/16 01:48:19;;;;;;;10.80;6.17;;;19.70;99.90;;;;;;6096238;23;21584;-93
2021/08/16 01:50:47;;;;;;;8.50;6.50;;;19.70;99.90;;;;;;6095512;23;20617;-93
2021/08/16 01:53:14;;;;;;;5.87;5.17;;;19.70;99.90;;;;;;6094617;23;20567;-94
2021/08/16 01:55:47;;;;;;;9.53;6.10;;;19.60;99.90;;;;;;6094087;23;20602;-93
2021/08/16 01:58:14;;;;;;;10.23;5.93;;;19.60;99.90;;;;;;6092937;23;20726;-94
2021/08/16 02:00:41;;;;;;;6.70;6.03;;;19.60;99.90;;;;;;6092122;23;20588;-94
2021/08/16 02:03:09;;;;;;;6.37;5.77;;;19.60;99.90;;;;;;6089931;23;20589;-94
2021/08/16 02:05:35;;;;;;;6.57;5.40;;;19.60;99.90;;;;;;6093959;23;20586;-94
2021/08/16 02:08:03;;;;;;;6.70;6.00;;;19.60;99.90;;;;;;6093619;23;20569;-94
2021/08/16 02:10:30;;;;;;;6.90;5.97;;;19.60;99.90;;;;;;6094513;23;20972;-94
2021/08/16 02:12:57;;;;;;;6.90;6.30;;;19.60;99.90;;;;;;6094206;23;21333;-94
2021/08/16 02:15:24;;;;;;;7.23;6.63;;;19.60;99.90;;;;;;6094618;23;20613;-94
2021/08/16 02:17:51;;;;;;;9.23;7.17;;;19.60;99.90;;;;;;6093203;23;20596;-94
2021/08/16 02:20:19;;;;;;;9.63;6.13;;;19.60;99.90;;;;;;6093669;23;21174;-95
2021/08/16 02:22:46;;;;;;;7.57;5.53;;;19.60;99.90;;;;;;6068478;23;20968;-93
2021/08/16 02:25:14;;;;;;;10.83;6.30;;;19.60;99.90;;;;;;6094866;23;20588;-94
2021/08/16 02:27:45;;;;;;;6.87;6.17;;;19.60;99.90;;;;;;6090382;23;20617;-94
2021/08/16 02:30:14;;;;;;;7.43;6.77;;;19.60;99.90;;;;;;6090386;23;20642;-94
2021/08/16 02:32:41;;;;;;;7.03;6.43;;;19.60;99.90;;;;;;6093922;23;20600;-94
2021/08/16 02:35:09;;;;;;;8.33;7.37;;;19.60;99.90;;;;;;6093932;23;20594;-93
2021/08/16 02:37:40;;;;;;;6.67;6.13;;;19.60;99.90;;;;;;6093398;23;20594;-94
2021/08/16 02:40:09;;;;;;;8.27;7.47;;;19.60;99.90;;;;;;6093156;23;20613;-94
2021/08/16 02:42:35;;;;;;;8.43;7.60;;;19.70;99.90;;;;;;6068712;23;20594;-94
2021/08/16 02:45:03;;;;;;;10.20;7.47;;;19.70;99.90;;;;;;6094519;23;20609;-95
2021/08/16 02:47:30;;;;;;;9.13;8.13;;;19.70;99.90;;;;;;6092957;23;20943;-94
2021/08/16 02:49:57;;;;;;;8.03;7.23;;;19.70;99.90;;;;;;6093690;23;20741;-95
2021/08/16 02:52:26;;;;;;;9.70;7.67;;;19.70;99.90;;;;;;6093233;23;20589;-94
2021/08/16 02:54:54;;;;;;;8.23;7.33;;;19.70;99.90;;;;;;6094173;23;20559;-94
2021/08/16 02:57:21;;;;;;;7.23;6.53;;;19.80;99.90;;;;;;6092956;23;20593;-94
2021/08/16 02:59:48;;;;;;;7.83;7.13;;;19.80;99.90;;;;;;6093727;23;20614;-94
2021/08/16 03:02:15;;;;;;;11.23;7.03;;;19.80;99.90;;;;;;6093454;23;20586;-94
2021/08/16 03:04:42;;;;;;;6.33;5.73;;;19.80;99.90;;;;;;6092226;23;20516;-95
2021/08/16 03:07:09;;;;;;;7.20;6.20;;;19.80;99.90;;;;;;6065257;23;20586;-94
2021/08/16 03:09:36;;;;;;;9.90;5.90;;;19.90;99.90;;;;;;6090883;23;20693;-94
2021/08/16 03:12:06;;;;;;;6.43;5.70;;;19.80;99.90;;;;;;6094112;23;20617;-94
2021/08/16 03:14:32;;;;;;;5.57;5.07;;;19.90;99.90;;;;;;6092606;23;20605;-94
2021/08/16 03:16:59;;;;;;;5.63;5.23;;;19.90;99.90;;;;;;6092320;23;20558;-94
2021/08/16 03:19:26;;;;;;;5.80;5.13;;;19.90;99.90;;;;;;6064459;23;21631;-94
2021/08/16 03:21:55;;;;;;;5.67;5.17;;;19.90;99.90;;;;;;6087677;23;20563;-93
2021/08/16 03:24:23;;;;;;;5.53;4.80;;;20.00;99.90;;;;;;6091699;23;20582;-93
2021/08/16 03:26:50;;;;;;;7.37;5.30;;;19.90;99.90;;;;;;6093544;23;20582;-94
2021/08/16 03:29:18;;;;;;;5.43;4.93;;;20.00;99.90;;;;;;6092610;23;20592;-94
2021/08/16 03:31:45;;;;;;;6.27;4.77;;;20.00;99.90;;;;;;6093489;23;20590;-94
2021/08/16 03:34:13;;;;;;;6.33;5.70;;;20.00;99.90;;;;;;6093579;23;20590;-94
2021/08/16 03:36:39;;;;;;;6.30;5.50;;;20.00;99.90;;;;;;6092689;23;20596;-94
2021/08/16 03:39:06;;;;;;;5.27;4.67;;;20.00;99.90;;;;;;6092544;23;20912;-94
2021/08/16 03:41:33;;;;;;;8.83;5.87;;;20.00;99.90;;;;;;6063975;23;20614;-94
2021/08/16 03:44:00;;;;;;;6.20;4.73;;;20.10;99.90;;;;;;6092446;23;20597;-94
2021/08/16 03:46:28;;;;;;;5.17;4.67;;;20.00;99.90;;;;;;6093242;23;20562;-93
2021/08/16 03:48:55;;;;;;;5.73;5.23;;;20.00;99.90;;;;;;6092982;23;20682;-94
2021/08/16 03:51:23;;;;;;;6.13;5.40;;;20.00;99.90;;;;;;6093008;23;20713;-94
2021/08/16 03:53:50;;;;;;;6.20;5.60;;;20.00;99.90;;;;;;6092769;23;20565;-93
2021/08/16 03:56:17;;;;;;;5.80;5.20;;;20.00;99.90;;;;;;6092870;23;20911;-93
2021/08/16 03:58:44;;;;;;;5.37;4.87;;;20.00;99.90;;;;;;6090610;23;20577;-94
2021/08/16 04:01:12;;;;;;;7.10;5.90;;;20.00;99.90;;;;;;6090988;23;20620;-94
2021/08/16 04:03:42;;;;;;;5.53;5.03;;;20.10;99.90;;;;;;6092497;23;20928;-94
2021/08/16 04:06:09;;;;;;;6.70;5.90;;;20.10;99.90;;;;;;6093236;23;20598;-94
2021/08/16 04:08:39;;;;;;;7.53;6.50;;;20.00;99.90;;;;;;6091977;23;21284;-93
2021/08/16 04:11:06;;;;;;;9.73;7.80;;;20.10;99.90;;;;;;6093374;23;20752;-93
2021/08/16 04:13:33;;;;;;;6.17;5.57;;;20.10;99.90;;;;;;6093802;23;20950;-94
2021/08/16 04:16:00;;;;;;;7.33;6.47;;;20.10;99.90;;;;;;6092531;23;20609;-94
2021/08/16 04:18:27;;;;;;;6.20;5.60;;;20.00;99.90;;;;;;6091856;23;20593;-94
2021/08/16 04:20:55;;;;;;;6.93;6.43;;;20.00;99.90;;;;;;6093184;23;20911;-94
2021/08/16 04:23:21;;;;;;;7.23;5.67;;;20.00;99.90;;;;;;6067011;23;20586;-94
2021/08/16 04:25:48;;;;;;;6.07;5.57;;;19.90;99.90;;;;;;6092795;23;20594;-93
2021/08/16 04:28:15;;;;;;;8.43;7.10;;;19.90;99.90;;;;;;6092414;23;20593;-93
2021/08/16 04:30:42;;;;;;;7.23;6.53;;;19.90;99.90;;;;;;6067646;23;20700;-94
2021/08/16 04:33:09;;;;;;;7.43;6.70;;;19.90;99.90;;;;;;6088401;23;20661;-94
2021/08/16 04:35:36;;;;;;;7.30;6.60;;;19.90;99.90;;;;;;6093584;23;20850;-94
2021/08/16 04:38:05;;;;;;;9.43;6.07;;;19.90;99.90;;;;;;6090759;23;20916;-94
2021/08/16 04:40:32;;;;;;;7.63;6.73;;;19.90;99.90;;;;;;6092301;23;20621;-94
2021/08/16 04:42:59;;;;;;;7.13;6.37;;;19.90;99.90;;;;;;6093157;23;20562;-94
2021/08/16 04:45:26;;;;;;;9.80;7.90;;;19.90;99.90;;;;;;6093080;23;20653;-92
2021/08/16 04:47:54;;;;;;;8.33;7.57;;;19.90;99.90;;;;;;6092549;23;20617;-94
2021/08/16 04:50:21;;;;;;;9.47;7.57;;;20.00;99.90;;;;;;6090664;23;21037;-94
2021/08/16 04:52:48;;;;;;;7.33;6.67;;;20.10;99.90;;;;;;6090942;23;20582;-94
2021/08/16 04:55:17;;;;;;;9.13;6.73;;;20.20;99.90;;;;;;6088316;23;20984;-94
2021/08/16 04:57:44;;;;;;;7.70;6.33;;;20.20;99.90;;;;;;6088601;23;20577;-94
2021/08/16 05:00:12;;;;;;;7.03;6.37;;;20.30;99.90;;;;;;6092153;23;20636;-94
2021/08/16 05:02:39;;;;;;;7.23;6.63;;;20.40;99.90;;;;;;6093310;23;20646;-93
2021/08/16 05:05:09;;;;;;;8.90;7.27;;;20.50;99.90;;;;;;6093379;23;21112;-93
2021/08/16 05:07:38;;;;;;;7.93;6.50;;;20.50;99.90;;;;;;6092669;23;20604;-94
2021/08/16 05:10:07;;;;;;;6.83;6.23;;;20.50;99.90;;;;;;6092497;23;20939;-94
2021/08/16 05:12:36;;;;;;;11.70;7.17;;;20.60;99.90;;;;;;6093243;23;20617;-94
2021/08/16 05:15:04;;;;;;;13.23;7.70;;;20.70;99.90;;;;;;6092945;23;20586;-94
2021/08/16 05:17:32;;;;;;;9.63;7.43;;;20.70;99.90;;;;;;6092223;23;20590;-94
2021/08/16 05:19:59;;;;;;;13.77;10.10;;;20.80;99.90;;;;;;6092961;23;20618;-94
2021/08/16 05:22:26;;;;;;;8.10;7.30;;;20.80;99.90;;;;;;6092824;23;20597;-93
2021/08/16 05:24:53;;;;;;;10.47;6.83;;;20.80;99.90;;;;;;6092081;23;20570;-93
2021/08/16 05:27:20;;;;;;;8.83;7.23;;;20.90;99.90;;;;;;6092730;23;20594;-93
2021/08/16 05:29:49;;;;;;;6.57;5.87;;;20.90;99.90;;;;;;6092910;23;21025;-93
2021/08/16 05:32:16;;;;;;;9.17;6.23;;;20.90;99.90;;;;;;6094259;23;20610;-93
2021/08/16 05:34:43;;;;;;;11.10;6.20;;;20.90;99.90;;;;;;6094608;23;20586;-94
2021/08/16 05:37:10;;;;;;;8.47;5.63;;;21.00;99.90;;;;;;6094756;23;21405;-93
2021/08/16 05:39:37;;;;;;;7.97;5.90;;;21.00;99.90;;;;;;6093470;23;20628;-94
2021/08/16 05:42:05;;;;;;;10.43;6.80;;;21.00;99.90;;;;;;6094552;23;20935;-94
2021/08/16 05:44:35;;;;;;;8.33;7.00;;;21.00;99.90;;;;;;6092310;23;20600;-93
2021/08/16 05:47:05;;;;;;;10.67;5.37;;;21.00;99.90;;;;;;6090504;23;20584;-93
2021/08/16 05:49:32;;;;;;;7.20;5.77;;;21.00;99.90;;;;;;6092596;23;21165;-94
2021/08/16 05:51:59;;;;;;;9.50;5.73;;;21.00;99.90;;;;;;6093191;23;20614;-94
2021/08/16 05:54:26;;;;;;;9.30;5.83;;;21.00;99.90;;;;;;6092956;23;20578;-94
2021/08/16 05:56:55;;;;;;;7.50;5.57;;;21.00;99.90;;;;;;6094372;23;20590;-93
2021/08/16 05:59:22;;;;;;;5.90;5.30;;;21.00;99.90;;;;;;6093538;23;20582;-93
2021/08/16 06:01:51;;;;;;;6.57;6.00;;;21.00;99.90;;;;;;6094497;23;20863;-95
2021/08/16 06:04:20;;;;;;;6.53;5.10;;;21.10;99.90;;;;;;6094056;23;20605;-94
2021/08/16 06:06:47;;;;;;;6.00;5.43;;;21.10;99.90;;;;;;6093447;23;20590;-94
2021/08/16 06:09:14;;;;;;;5.67;4.90;;;21.10;99.90;;;;;;6089722;23;20590;-93
2021/08/16 06:11:41;;;;;;;10.47;5.50;;;21.10;99.90;;;;;;6092757;23;20606;-94
2021/08/16 06:14:07;;;;;;;6.93;4.80;;;21.10;99.90;;;;;;6094402;23;20600;-92
2021/08/16 06:16:34;;;;;;;8.97;4.40;;;21.00;99.90;;;;;;6093089;23;20593;-93
2021/08/16 06:19:01;;;;;;;5.00;4.50;;;21.10;99.90;;;;;;6091625;23;20597;-94
2021/08/16 06:21:31;;;;;;;6.73;5.60;;;21.10;99.90;;;;;;6094714;23;20693;-94
2021/08/16 06:23:58;;;;;;;4.53;4.00;;;21.20;99.90;;;;;;6093089;23;20594;-95
2021/08/16 06:26:25;;;;;;;7.67;5.47;;;21.20;99.90;;;;;;6094081;23;20645;-94
2021/08/16 06:28:52;;;;;;;4.97;4.50;;;21.20;99.90;;;;;;6093124;23;20667;-94
2021/08/16 06:31:19;;;;;;;5.73;4.00;;;21.30;99.90;;;;;;6094501;23;21012;-94
2021/08/16 06:33:47;;;;;;;8.30;5.03;;;21.30;99.90;;;;;;6094000;23;20604;-94
2021/08/16 06:36:17;;;;;;;5.10;3.90;;;21.40;99.90;;;;;;6093994;23;20523;-94
2021/08/16 06:38:47;;;;;;;4.13;3.73;;;21.50;99.90;;;;;;6092884;23;21135;-95
2021/08/16 06:41:15;;;;;;;5.50;4.27;;;21.60;99.90;;;;;;6093297;23;20660;-93
2021/08/16 06:43:42;;;;;;;5.20;3.83;;;21.60;99.90;;;;;;6094013;23;20601;-94
2021/08/16 06:46:09;;;;;;;6.63;4.30;;;21.60;99.90;;;;;;6089977;23;21174;-94
2021/08/16 06:48:36;;;;;;;8.80;4.70;;;21.60;99.90;;;;;;6093071;23;20559;-94
2021/08/16 06:51:06;;;;;;;6.50;4.93;;;21.70;99.90;;;;;;6093827;23;20618;-93
2021/08/16 06:53:33;;;;;;;6.70;4.00;;;21.60;99.90;;;;;;6093840;23;20558;-94
2021/08/16 06:56:01;;;;;;;10.93;3.80;;;21.70;99.90;;;;;;6093528;23;20659;-94
2021/08/16 06:58:28;;;;;;;5.23;3.53;;;21.90;99.90;;;;;;6092281;23;20872;-93
2021/08/16 07:00:56;;;;;;;6.10;4.60;;;21.90;99.90;;;;;;6089408;23;20602;-93
2021/08/16 07:03:23;;;;;;;5.63;4.30;;;21.90;99.90;;;;;;6091066;23;20594;-94
2021/08/16 07:05:50;;;;;;;6.80;4.40;;;21.90;99.90;;;;;;6094426;23;20669;-94
2021/08/16 07:08:17;;;;;;;5.30;3.47;;;22.00;99.90;;;;;;6093184;23;20658;-92
2021/08/16 07:10:45;;;;;;;8.13;4.40;;;22.10;99.90;;;;;;6093983;23;20625;-94
2021/08/16 07:13:14;;;;;;;6.40;4.63;;;22.10;99.90;;;;;;6093819;23;20571;-93
2021/08/16 07:15:40;;;;;;;5.93;4.53;;;22.20;99.90;;;;;;6094238;23;20598;-94
2021/08/16 07:18:07;;;;;;;5.70;4.00;;;22.20;99.90;;;;;;6093467;23;20620;-93
2021/08/16 07:20:37;;;;;;;4.90;4.40;;;22.20;99.90;;;;;;6091755;23;20620;-94
2021/08/16 07:23:04;;;;;;;5.13;3.83;;;22.20;99.90;;;;;;6092304;23;20520;-93
2021/08/16 07:25:31;;;;;;;7.20;3.53;;;22.20;99.90;;;;;;6095317;23;20594;-93
2021/08/16 07:27:58;;;;;;;3.83;3.50;;;22.20;99.90;;;;;;6095457;23;20573;-95
2021/08/16 07:30:26;;;;;;;5.33;3.93;;;22.10;99.90;;;;;;6095282;23;20712;-94
2021/08/16 07:32:53;;;;;;;4.80;3.53;;;22.10;99.90;;;;;;6095572;23;20701;-94
2021/08/16 07:35:21;;;;;;;5.43;3.30;;;22.00;99.90;;;;;;6094605;23;20625;-94
2021/08/16 07:37:56;;;;;;;6.43;4.53;;;22.00;99.90;;;;;;6092387;23;20605;-94
2021/08/16 07:40:23;;;;;;;4.07;3.77;;;22.00;99.90;;;;;;6093186;23;20625;-93
2021/08/16 07:42:50;;;;;;;3.87;3.47;;;22.10;99.90;;;;;;6091408;23;20577;-94
2021/08/16 07:45:17;;;;;;;4.23;3.83;;;22.10;99.90;;;;;;6091712;23;20558;-94
2021/08/16 07:47:45;;;;;;;4.90;3.43;;;22.20;99.90;;;;;;6093301;23;20673;-94
2021/08/16 07:50:14;;;;;;;5.10;3.27;;;22.30;99.90;;;;;;6092670;23;20601;-94
2021/08/16 07:52:42;;;;;;;4.20;3.80;;;22.40;99.90;;;;;;6065009;23;20621;-94
2021/08/16 07:55:09;;;;;;;4.13;3.80;;;22.40;99.90;;;;;;6089922;23;20594;-94
2021/08/16 07:57:39;;;;;;;5.97;2.87;;;22.50;99.90;;;;;;6091423;23;20596;-94
2021/08/16 08:00:08;;;;;;;5.97;3.40;;;22.60;99.90;;;;;;6091602;23;20598;-95
2021/08/16 08:02:43;;;;;;;8.13;3.60;;;22.70;99.90;;;;;;6093323;23;20904;-94
2021/08/16 08:05:14;;;;;;;5.47;3.37;;;22.80;99.90;;;;;;6092986;23;20602;-94
2021/08/16 08:07:41;;;;;;;5.87;3.90;;;22.80;99.90;;;;;;6066548;23;20586;-94
2021/08/16 08:10:11;;;;;;;5.47;3.37;;;23.00;99.90;;;;;;6089866;23;20617;-94
2021/08/16 08:12:38;;;;;;;3.80;3.50;;;23.00;99.90;;;;;;6092560;23;20617;-93
2021/08/16 08:15:07;;;;;;;8.90;3.80;;;23.10;99.90;;;;;;6087681;23;20582;-93
2021/08/16 08:17:34;;;;;;;3.63;3.23;;;23.20;99.90;;;;;;6090957;23;20601;-94
2021/08/16 08:20:04;;;;;;;3.43;3.13;;;23.20;99.90;;;;;;6093296;23;20977;-95
2021/08/16 08:22:33;;;;;;;5.00;3.07;;;23.30;99.90;;;;;;6067391;23;20937;-94
2021/08/16 08:25:00;;;;;;;3.47;3.17;;;23.30;99.90;;;;;;6092684;23;20565;-95
2021/08/16 08:27:27;;;;;;;3.40;3.10;;;23.30;99.90;;;;;;6092184;23;20596;-93
2021/08/16 08:29:54;;;;;;;4.43;3.03;;;23.50;99.90;;;;;;6092944;23;20932;-94
2021/08/16 08:32:21;;;;;;;4.07;3.77;;;23.50;99.90;;;;;;6093277;23;20606;-93
2021/08/16 08:34:48;;;;;;;4.43;4.03;;;23.60;99.90;;;;;;6089145;23;20563;-93
2021/08/16 08:37:16;;;;;;;6.43;4.20;;;23.60;99.90;;;;;;6066444;23;20922;-94
2021/08/16 08:39:46;;;;;;;5.33;3.87;;;23.70;99.90;;;;;;6091296;23;20634;-94
2021/08/16 08:42:14;;;;;;;3.73;3.40;;;23.70;99.90;;;;;;6091815;23;21324;-94
2021/08/16 08:44:44;;;;;;;5.20;4.47;;;23.90;99.90;;;;;;6092991;23;20594;-94
2021/08/16 08:47:12;;;;;;;5.70;4.00;;;23.90;99.90;;;;;;6092663;23;20596;-94
2021/08/16 08:49:38;;;;;;;3.30;3.00;;;24.10;99.90;;;;;;6092526;23;20613;-94
2021/08/16 08:52:06;;;;;;;4.07;3.50;;;24.10;99.90;;;;;;6092513;23;20991;-94
2021/08/16 08:54:34;;;;;;;4.13;3.50;;;24.10;99.90;;;;;;6092962;23;20593;-95
2021/08/16 08:57:03;;;;;;;4.90;3.07;;;24.30;99.90;;;;;;6092868;23;20601;-94
2021/08/16 08:59:29;;;;;;;5.93;3.70;;;24.30;99.90;;;;;;6092363;23;20629;-95
2021/08/16 09:01:58;;;;;;;4.60;3.10;;;24.40;99.90;;;;;;6093357;23;20614;-94
2021/08/16 09:04:26;;;;;;;6.30;3.57;;;24.60;99.90;;;;;;6093573;23;20598;-94
2021/08/16 09:06:53;;;;;;;5.23;3.90;;;24.50;99.90;;;;;;6091223;23;20566;-94
2021/08/16 09:09:20;;;;;;;4.93;4.10;;;24.60;99.90;;;;;;6089838;23;20598;-94
2021/08/16 09:11:49;;;;;;;4.90;3.90;;;24.70;99.90;;;;;;6093295;23;20625;-93
2021/08/16 09:14:22;;;;;;;4.70;4.10;;;24.70;99.90;;;;;;6094346;23;20684;-94
2021/08/16 09:16:50;;;;;;;5.20;3.70;;;24.70;99.90;;;;;;6094171;23;20559;-94
2021/08/16 09:19:18;;;;;;;4.67;4.17;;;24.50;99.90;;;;;;6093250;23;20577;-94
2021/08/16 09:21:52;;;;;;;6.17;3.63;;;24.50;99.90;;;;;;6094954;23;20566;-94
2021/08/16 09:24:24;;;;;;;10.47;4.10;;;24.30;99.90;;;;;;6094693;23;20566;-93
2021/08/16 09:26:51;;;;;;;5.40;4.30;;;24.30;99.90;;;;;;6089539;23;20558;-94
2021/08/16 09:29:21;;;;;;;5.00;4.10;;;24.30;99.90;;;;;;6065172;23;20586;-94
2021/08/16 09:31:53;;;;;;;5.07;4.33;;;24.40;99.90;;;;;;6094037;23;20590;-94
2021/08/16 09:34:35;;;;;;;4.93;3.90;;;24.40;99.90;;;;;;6095062;23;20590;-94
2021/08/16 09:37:14;;;;;;;7.50;5.53;;;24.50;99.90;;;;;;6095274;23;20590;-94
2021/08/16 09:39:43;;;;;;;6.87;6.17;;;24.60;99.90;;;;;;6094049;23;20586;-94
2021/08/16 09:42:10;;;;;;;7.57;6.33;;;24.70;99.90;;;;;;6093722;23;20602;-94
2021/08/16 09:44:47;;;;;;;7.97;5.03;;;24.60;99.90;;;;;;6095006;23;20766;-93
2021/08/16 09:47:15;;;;;;;5.93;5.00;;;24.40;99.90;;;;;;6089119;23;20531;-94
2021/08/16 09:49:41;;;;;;;9.30;3.97;;;24.30;99.90;;;;;;6093481;23;21170;-93
2021/08/16 09:52:10;;;;;;;5.73;4.77;;;24.20;99.90;;;;;;6094599;23;20612;-93
2021/08/16 09:54:38;;;;;;;4.53;4.10;;;24.10;99.90;;;;;;6094364;23;21126;-93
2021/08/16 09:57:06;;;;;;;4.67;4.13;;;24.10;99.90;;;;;;6093560;23;20597;-93
2021/08/16 09:59:34;;;;;;;8.43;5.00;;;24.00;99.90;;;;;;6093027;23;21174;-94
2021/08/16 10:02:03;;;;;;;7.57;5.07;;;24.00;99.90;;;;;;6093917;23;20644;-92
2021/08/16 10:04:32;;;;;;;4.97;4.50;;;23.90;99.90;;;;;;6094132;23;20592;-94
2021/08/16 10:07:00;;;;;;;4.90;4.40;;;23.80;99.90;;;;;;6094473;23;21192;-94
2021/08/16 10:09:28;;;;;;;6.00;4.80;;;23.90;99.90;;;;;;6092888;23;20555;-94
2021/08/16 10:11:57;;;;;;;5.87;4.20;;;23.90;99.90;;;;;;6093845;23;20614;-94
2021/08/16 10:14:31;;;;;;;5.37;3.90;;;23.80;99.90;;;;;;6094425;23;20555;-94
2021/08/16 10:17:01;;;;;;;5.93;3.90;;;23.90;99.90;;;;;;6093598;23;20589;-94
2021/08/16 10:19:36;;;;;;;5.87;4.20;;;23.90;99.90;;;;;;6094279;23;20589;-94
2021/08/16 10:22:04;;;;;;;7.47;3.80;;;23.90;99.90;;;;;;6091614;23;20577;-95
2021/08/16 10:24:32;;;;;;;6.70;3.83;;;23.90;99.90;;;;;;6093499;23;20654;-93
2021/08/16 10:27:02;;;;;;;4.80;4.30;;;24.00;99.90;;;;;;6093369;23;20584;-94
2021/08/16 10:29:39;;;;;;;7.10;4.43;;;24.00;99.90;;;;;;6092823;23;20613;-94
2021/08/16 10:32:09;;;;;;;6.57;4.27;;;24.00;99.90;;;;;;6091444;23;20605;-94
2021/08/16 10:34:39;;;;;;;5.90;4.03;;;23.90;99.90;;;;;;6093352;23;20600;-94
2021/08/16 10:37:09;;;;;;;7.33;4.43;;;23.80;99.90;;;;;;6091808;23;20585;-94
2021/08/16 10:39:40;;;;;;;4.10;3.70;;;23.80;99.90;;;;;;6090228;23;20696;-94
2021/08/16 10:42:08;;;;;;;6.87;3.93;;;23.70;99.90;;;;;;6092519;23;20595;-93
2021/08/16 10:44:44;;;;;;;7.93;3.90;;;23.70;99.90;;;;;;6093371;23;21146;-94
2021/08/16 10:47:12;;;;;;;5.90;3.50;;;23.70;99.90;;;;;;6093434;23;20574;-94
2021/08/16 10:49:41;;;;;;;8.73;2.90;;;23.60;99.90;;;;;;6092732;23;20918;-94
2021/08/16 10:52:21;;;;;;;4.57;3.10;;;23.70;99.90;;;;;;6094425;23;20609;-93
2021/08/16 10:54:48;;;;;;;5.10;3.00;;;23.80;99.90;;;;;;6094435;23;20894;-94
2021/08/16 10:57:15;;;;;;;3.70;3.40;;;23.90;99.90;;;;;;6093400;23;20571;-95
2021/08/16 10:59:42;;;;;;;4.17;3.70;;;24.20;99.90;;;;;;6092209;23;21220;-95
2021/08/16 11:02:09;;;;;;;9.00;3.10;;;24.70;99.90;;;;;;6091197;23;20999;-94
2021/08/16 11:04:37;;;;;;;6.10;4.17;;;25.00;99.90;;;;;;6093238;23;20681;-94
2021/08/16 11:07:08;;;;;;;5.43;3.67;;;25.10;98.00;;;;;;6093954;23;20596;-94
2021/08/16 11:09:37;;;;;;;4.57;3.43;;;25.00;98.20;;;;;;6093581;23;20927;-93
2021/08/16 11:12:06;;;;;;;5.43;3.97;;;24.80;98.10;;;;;;6093447;23;20605;-94
2021/08/16 11:14:35;;;;;;;4.93;3.80;;;24.50;99.10;;;;;;6093252;23;20566;-94
2021/08/16 11:17:02;;;;;;;5.90;3.30;;;24.40;99.00;;;;;;6093737;23;21142;-94
2021/08/16 11:19:41;;;;;;;4.37;3.77;;;24.30;99.10;;;;;;6093511;23;20569;-94
2021/08/16 11:22:09;;;;;;;3.50;3.00;;;24.30;99.90;;;;;;6093797;23;20527;-94
2021/08/16 11:24:38;;;;;;;5.70;3.70;;;24.40;99.60;;;;;;6094845;23;20611;-94
2021/08/16 11:27:07;;;;;;;4.13;3.60;;;24.50;99.90;;;;;;6099805;23;20658;-95
2021/08/16 11:29:35;;;;;;;7.77;4.30;;;24.80;99.60;;;;;;6071417;23;20610;-94
2021/08/16 11:32:04;;;;;;;5.40;3.23;;;25.10;98.20;;;;;;6093582;23;20613;-95
2021/08/16 11:34:33;;;;;;;4.20;3.90;;;25.50;97.00;;;;;;6095992;23;20614;-95
2021/08/16 11:37:00;;;;;;;4.40;3.43;;;25.80;95.60;;;;;;6093701;23;20559;-94
2021/08/16 11:39:34;;;;;;;6.40;3.60;;;25.80;95.70;;;;;;6092639;23;20582;-93
2021/08/16 11:42:02;;;;;;;7.97;4.23;;;25.60;96.30;;;;;;6067199;23;21174;-93
2021/08/16 11:44:30;;;;;;;4.77;3.47;;;25.30;96.60;;;;;;6092531;23;20586;-94
2021/08/16 11:46:59;;;;;;;4.40;4.00;;;25.10;97.20;;;;;;6093612;23;20618;-94
2021/08/16 11:49:27;;;;;;;5.70;3.37;;;25.20;97.20;;;;;;6092555;23;20559;-95
2021/08/16 11:51:55;;;;;;;4.13;3.60;;;25.50;97.10;;;;;;6093906;23;21119;-94
2021/08/16 11:54:28;;;;;;;4.63;3.40;;;26.20;94.90;;;;;;6090413;23;20641;-95
2021/08/16 11:56:58;;;;;;;5.17;3.80;;;26.90;93.70;;;;;;6088026;23;20644;-95
2021/08/16 11:59:25;;;;;;;4.40;3.07;;;27.60;91.90;;;;;;6088203;23;20582;-95
2021/08/16 12:01:54;;;;;;;4.27;3.00;;;28.20;90.20;;;;;;6091790;23;20793;-96
2021/08/16 12:04:22;;;;;;;6.30;3.30;;;28.80;89.70;;;;;;6091867;23;20589;-94
2021/08/16 12:06:50;;;;;;;4.30;3.43;;;29.30;86.30;;;;;;6093566;23;20570;-94
2021/08/16 12:09:17;;;;;;;5.47;3.50;;;29.80;82.70;;;;;;6091962;23;20621;-95
2021/08/16 12:11:45;;;;;;;4.60;3.30;;;30.10;81.30;;;;;;6093602;23;20584;-95
2021/08/16 12:14:13;;;;;;;3.90;2.70;;;30.40;80.30;;;;;;6090736;23;20606;-95
2021/08/16 12:16:41;;;;;;;5.03;3.20;;;30.80;77.40;;;;;;6086666;23;20589;-94
2021/08/16 12:19:09;;;;;;;4.23;3.30;;;31.10;77.60;;;;;;6089295;23;21190;-94
2021/08/16 12:21:36;;;;;;;5.60;3.63;;;30.90;76.10;;;;;;6092839;23;20579;-93
2021/08/16 12:24:06;;;;;;;3.63;3.10;;;30.80;76.70;;;;;;6092335;23;21006;-94
2021/08/16 12:26:35;;;;;;;4.47;2.90;;;30.80;73.80;;;;;;6067044;23;20606;-94
2021/08/16 12:29:03;;;;;;;4.67;3.50;;;30.60;73.70;;;;;;6090997;23;20649;-94
2021/08/16 12:31:32;;;;;;;4.80;3.57;;;30.40;74.00;;;;;;6062825;23;20614;-95
2021/08/16 12:34:02;;;;;;;3.97;3.40;;;30.60;73.70;;;;;;6062654;23;20669;-94
2021/08/16 12:36:31;;;;;;;9.33;3.63;;;30.80;73.00;;;;;;6091486;23;20562;-94
2021/08/16 12:39:00;;;;;;;4.00;3.70;;;30.50;72.70;;;;;;6088990;23;20594;-95
2021/08/16 12:41:29;;;;;;;5.27;4.13;;;30.20;72.50;;;;;;6089463;23;20725;-94
2021/08/16 12:43:56;;;;;;;5.80;3.57;;;29.90;74.10;;;;;;6091800;23;20586;-93
2021/08/16 12:46:35;;;;;;;3.80;3.50;;;29.50;74.40;;;;;;6089399;23;21167;-93
2021/08/16 12:49:04;;;;;;;4.37;3.40;;;29.20;74.30;;;;;;6089628;23;20582;-93
2021/08/16 12:51:32;;;;;;;4.90;3.37;;;28.80;74.80;;;;;;6091718;23;21221;-93